Arrowhead, Minnesota
Current Conditions -  °F | °C
As of 12:36 AM on Friday 19 Dec 2014 (Local Time) from KCOQ Reporting Station
Overcast Overcast  
Wind Chill: 11°   Ceiling: 400
Heat Index: 19°   Visibility: 10mi
Dew Point: 18°   Wind: 6mph
Humidity: 93%   Direction: 190°S
Pressure: 30.22"   Gusts: NA
Location:  46.8211°N, 92.6871°W
Report Text: KCOQ 190636Z AUTO 19005KT 10SM OVC004 M07/M08 A3022 RMK AO2
Loading
Personal Weather Stations






























Interactive Weather Map New forecast layout! Learn more

10-Day Weather Forecast

Advertisements
Track Severe Weather on mobile